Time;durP1;ratioP1;P1;durP2;ratioP2;P2;SDS_P1;SDS_P2;PMS_P1;PMS_P2;Temp;Humidity;BMP_temperature;BMP_pressure;BME280_temperature;BME280_humidity;BME280_pressure;Samples;Min_cycle;Max_cycle;Signal;HPM_P1;HPM_P2
2023/10/05 00:02:10;;;;;;;;;;;;;;;12.31;94.11;102253.16;6185038;23;19915;-62
2023/10/05 00:04:42;;;;;;;;;;;;;;;12.32;94.36;102248.78;6181620;22;19922;-61
2023/10/05 00:07:16;;;;;;;;;;;;;;;12.30;94.17;102251.41;6189230;23;20245;-62
2023/10/05 00:09:43;;;;;;;;;;;;;;;12.28;93.94;102255.75;6213038;23;20336;-62
2023/10/05 00:12:12;;;;;;;;;;;;;;;12.28;94.73;102258.41;6187514;23;19911;-62
2023/10/05 00:14:38;;;;;;;;;;;;;;;12.26;94.17;102250.50;6188817;23;19939;-62
2023/10/05 00:17:07;;;;;;;;;;;;;;;12.28;94.42;102263.66;6212239;23;19918;-62
2023/10/05 00:19:35;;;;;;;;;;;;;;;12.25;94.64;102269.78;6211833;23;19908;-62
2023/10/05 00:22:01;;;;;;;;;;;;;;;12.28;94.51;102274.16;6187822;23;19908;-62
2023/10/05 00:24:37;;;;;;;;;;;;;;;12.26;94.55;102273.28;6213140;23;20348;-62
2023/10/05 00:27:05;;;;;;;;;;;;;;;12.26;94.12;102271.53;6189980;23;19907;-62
2023/10/05 00:29:46;;;;;;;;;;;;;;;12.24;94.51;102275.03;6213127;23;19936;-62
2023/10/05 00:32:15;;;;;;;;;;;;;;;12.24;94.40;102272.38;6211033;23;20309;-62
2023/10/05 00:34:42;;;;;;;;;;;;;;;12.27;94.53;102277.69;6212471;23;19914;-62
2023/10/05 00:37:08;;;;;;;;;;;;;;;12.25;94.51;102282.03;6186795;23;19962;-62
2023/10/05 00:39:36;;;;;;;;;;;;;;;12.24;94.62;102282.91;6212358;23;20333;-62
2023/10/05 00:44:30;;;;;;;;;;;;;;;12.22;94.87;102289.91;6224512;23;19904;-62
2023/10/05 00:46:59;;;;;;;;;;;;;;;12.22;94.67;102284.66;6187536;23;19987;-61
2023/10/05 00:49:28;;;;;;;;;;;;;;;12.22;94.26;102285.53;6212237;23;20326;-62
2023/10/05 00:52:06;;;;;;;;;;;;;;;12.22;94.24;102287.28;6212189;23;19974;-61
2023/10/05 00:54:33;;;;;;;;;;;;;;;12.20;94.54;102289.91;6213817;23;19911;-61
2023/10/05 00:57:01;;;;;;;;;;;;;;;12.19;94.41;102288.16;6212640;23;19908;-61
2023/10/05 00:59:30;;;;;;;;;;;;;;;12.18;94.57;102289.00;6188122;23;20286;-62
2023/10/05 01:02:14;;;;;;;;;;;;;;;12.18;94.58;102293.41;6187656;23;19912;-61
2023/10/05 01:04:55;;;;;;;;;;;;;;;12.16;94.72;102292.53;6229608;22;19911;-62
2023/10/05 01:12:26;;;;;;;;;;;;;;;12.12;94.69;102299.50;6285364;22;19956;-61
2023/10/05 01:14:52;;;;;;;;;;;;;;;12.10;94.80;102286.34;6248244;22;19903;-61
2023/10/05 01:17:21;;;;;;;;;;;;;;;12.09;94.99;102289.84;6247427;22;19938;-61
2023/10/05 01:22:23;;;;;;;;;;;;;;;12.09;95.23;102286.34;6284827;22;20279;-62
2023/10/05 01:24:48;;;;;;;;;;;;;;;12.07;94.59;102280.22;6248168;22;19910;-61
2023/10/05 01:27:14;;;;;;;;;;;;;;;12.04;95.20;102296.84;6248182;22;19990;-62
2023/10/05 01:29:40;;;;;;;;;;;;;;;12.05;94.79;102285.47;6247837;22;19903;-61
2023/10/05 01:32:07;;;;;;;;;;;;;;;12.06;94.87;102289.84;6222420;22;20304;-62
2023/10/05 01:34:32;;;;;;;;;;;;;;;12.06;94.81;102284.56;6222088;22;19938;-61
2023/10/05 01:36:58;;;;;;;;;;;;;;;12.03;95.18;102281.06;6222446;22;19960;-61
2023/10/05 01:39:24;;;;;;;;;;;;;;;12.00;94.91;102284.56;6222783;22;20272;-61
2023/10/05 01:41:49;;;;;;;;;;;;;;;12.00;95.31;102283.69;6222916;22;19908;-61
2023/10/05 01:44:15;;;;;;;;;;;;;;;11.99;96.02;102281.91;6223555;22;20314;-61
2023/10/05 01:46:41;;;;;;;;;;;;;;;11.97;95.52;102284.53;6223789;22;19942;-62
2023/10/05 01:49:06;;;;;;;;;;;;;;;11.96;96.18;102277.53;6249465;22;19910;-61
2023/10/05 01:51:31;;;;;;;;;;;;;;;11.99;95.46;102269.66;6223727;22;20519;-61
2023/10/05 01:53:59;;;;;;;;;;;;;;;11.94;95.55;102267.00;6249913;22;19915;-61
2023/10/05 01:56:24;;;;;;;;;;;;;;;11.93;95.48;102264.34;6224225;22;20221;-64
2023/10/05 01:58:54;;;;;;;;;;;;;;;11.93;96.09;102257.38;6224398;22;19990;-65
2023/10/05 02:01:21;;;;;;;;;;;;;;;11.93;95.53;102253.84;6249066;22;19938;-65
2023/10/05 02:03:48;;;;;;;;;;;;;;;11.91;96.05;102260.81;6223023;22;19907;-65
2023/10/05 02:06:15;;;;;;;;;;;;;;;11.91;96.19;102252.94;6248540;22;19915;-62
2023/10/05 02:08:41;;;;;;;;;;;;;;;11.91;96.31;102255.56;6248964;22;19910;-62
2023/10/05 02:11:09;;;;;;;;;;;;;;;11.91;95.98;102258.19;6224189;22;19907;-62
2023/10/05 02:13:34;;;;;;;;;;;;;;;11.89;96.28;102265.19;6224538;22;20217;-63
2023/10/05 02:16:00;;;;;;;;;;;;;;;11.88;96.28;102260.81;6248834;22;19961;-62
2023/10/05 02:18:30;;;;;;;;;;;;;;;11.86;96.37;102259.94;6249097;22;19911;-62
2023/10/05 02:21:31;;;;;;;;;;;;;;;11.85;96.52;102256.44;6249703;22;19916;-62
2023/10/05 02:23:42;;;;;;;;;;;;;;;11.85;96.62;102251.19;6253345;22;19911;-62
2023/10/05 02:26:23;;;;;;;;;;;;;;;11.84;96.48;102251.13;6223872;22;19937;-62
2023/10/05 02:28:48;;;;;;;;;;;;;;;11.84;96.68;102257.28;6227621;22;19922;-63
2023/10/05 02:31:13;;;;;;;;;;;;;;;11.81;96.88;102259.91;6249449;22;19908;-63
2023/10/05 02:33:40;;;;;;;;;;;;;;;11.81;96.73;102252.03;6223708;22;19976;-63
2023/10/05 02:36:50;;;;;;;;;;;;;;;11.79;96.74;102259.91;6223331;22;19907;-62
2023/10/05 02:38:54;;;;;;;;;;;;;;;11.77;96.79;102251.13;6264152;22;20237;-63
2023/10/05 02:41:25;;;;;;;;;;;;;;;11.76;96.91;102244.09;6223828;22;19912;-63
2023/10/05 02:43:54;;;;;;;;;;;;;;;11.78;97.23;102242.38;6248497;22;19930;-62
2023/10/05 02:46:20;;;;;;;;;;;;;;;11.75;97.05;102245.00;6248585;22;20339;-62
2023/10/05 02:48:46;;;;;;;;;;;;;;;11.74;97.02;102240.59;6248648;22;19931;-63
2023/10/05 02:51:18;;;;;;;;;;;;;;;11.71;97.23;102242.31;6248646;22;19910;-62
2023/10/05 02:53:44;;;;;;;;;;;;;;;11.68;97.07;102237.94;6248998;22;20244;-62
2023/10/05 02:56:15;;;;;;;;;;;;;;;11.66;97.45;102244.06;6249181;22;19909;-63
2023/10/05 02:58:43;;;;;;;;;;;;;;;11.63;97.21;102237.03;6248531;22;20287;-62
2023/10/05 03:01:12;;;;;;;;;;;;;;;11.62;97.11;102245.75;6248225;22;20036;-62
2023/10/05 03:03:37;;;;;;;;;;;;;;;11.62;97.44;102248.38;6223289;22;20237;-62
2023/10/05 03:06:04;;;;;;;;;;;;;;;11.59;97.17;102241.41;6223748;22;19921;-63
2023/10/05 03:08:35;;;;;;;;;;;;;;;11.59;97.30;102243.13;6248477;22;19907;-63
2023/10/05 03:11:00;;;;;;;;;;;;;;;11.59;97.47;102246.66;6247427;22;19949;-63
2023/10/05 03:13:27;;;;;;;;;;;;;;;11.59;97.46;102237.88;6248655;22;20310;-62
2023/10/05 03:15:54;;;;;;;;;;;;;;;11.58;97.74;102244.00;6222672;22;19907;-62
2023/10/05 03:18:19;;;;;;;;;;;;;;;11.57;97.99;102237.00;6248029;22;19941;-63
2023/10/05 03:20:46;;;;;;;;;;;;;;;11.55;98.16;102236.09;6248527;22;19919;-63
2023/10/05 03:23:14;;;;;;;;;;;;;;;11.54;97.97;102231.72;6223514;22;19934;-63
2023/10/05 03:25:40;;;;;;;;;;;;;;;11.55;97.74;102231.75;6248407;22;19907;-62
2023/10/05 03:28:06;;;;;;;;;;;;;;;11.56;97.79;102230.84;6248944;22;20310;-63
2023/10/05 03:30:35;;;;;;;;;;;;;;;11.54;97.93;102229.09;6223678;22;19956;-62
2023/10/05 03:33:00;;;;;;;;;;;;;;;11.55;98.51;102228.22;6222794;22;20383;-63
2023/10/05 03:35:26;;;;;;;;;;;;;;;11.55;98.32;102222.97;6223784;22;19911;-63
2023/10/05 03:37:53;;;;;;;;;;;;;;;11.55;98.58;102220.34;6248638;22;19903;-63
2023/10/05 03:40:35;;;;;;;;;;;;;;;11.55;98.22;102223.88;6248084;22;19911;-62
2023/10/05 03:43:00;;;;;;;;;;;;;;;11.56;98.47;102224.72;6248516;22;19910;-62
2023/10/05 03:45:26;;;;;;;;;;;;;;;11.56;98.07;102230.84;6223856;22;19907;-62
2023/10/05 03:47:53;;;;;;;;;;;;;;;11.56;98.61;102224.72;6222533;22;19907;-62
2023/10/05 03:50:19;;;;;;;;;;;;;;;11.55;98.18;102222.97;6247900;22;19907;-62
2023/10/05 03:52:45;;;;;;;;;;;;;;;11.55;98.32;102222.97;6248848;22;20309;-62
2023/10/05 03:55:11;;;;;;;;;;;;;;;11.53;98.58;102225.59;6249162;22;20257;-63
2023/10/05 03:57:37;;;;;;;;;;;;;;;11.54;98.57;102221.22;6223456;22;20209;-62
2023/10/05 04:00:18;;;;;;;;;;;;;;;11.51;98.80;102224.72;6248547;22;19911;-62
2023/10/05 04:02:43;;;;;;;;;;;;;;;11.50;98.97;102238.69;6246895;22;19907;-62
2023/10/05 04:05:10;;;;;;;;;;;;;;;11.48;98.94;102236.91;6274160;22;20339;-63
2023/10/05 04:07:36;;;;;;;;;;;;;;;11.47;98.57;102228.19;6221281;22;19917;-62
2023/10/05 04:10:03;;;;;;;;;;;;;;;11.43;98.68;102229.91;6248209;22;20313;-62
2023/10/05 04:12:32;;;;;;;;;;;;;;;11.42;99.09;102232.50;6222970;22;19985;-63
2023/10/05 04:14:59;;;;;;;;;;;;;;;11.41;98.76;102228.16;6248621;22;19956;-63
2023/10/05 04:17:26;;;;;;;;;;;;;;;11.41;99.08;102234.25;6222228;22;19930;-62
2023/10/05 04:19:52;;;;;;;;;;;;;;;11.41;98.95;102225.53;6222373;22;19911;-62
2023/10/05 04:22:17;;;;;;;;;;;;;;;11.40;99.39;102235.13;6222749;22;20222;-62
2023/10/05 04:24:45;;;;;;;;;;;;;;;11.42;99.32;102237.75;6247317;22;19950;-63
2023/10/05 04:27:10;;;;;;;;;;;;;;;11.42;99.08;102238.66;6222883;22;19907;-62
2023/10/05 04:29:37;;;;;;;;;;;;;;;11.42;98.72;102236.03;6247730;22;20060;-62
2023/10/05 04:32:03;;;;;;;;;;;;;;;11.39;99.10;102243.88;6222702;22;19915;-62
2023/10/05 04:34:31;;;;;;;;;;;;;;;11.39;98.97;102238.63;6222444;22;19908;-63
2023/10/05 04:36:58;;;;;;;;;;;;;;;11.38;99.24;102239.50;6223093;22;19939;-63
2023/10/05 04:39:30;;;;;;;;;;;;;;;11.38;98.98;102244.75;6271684;22;19907;-62
2023/10/05 04:42:11;;;;;;;;;;;;;;;11.38;98.94;102244.75;6246330;22;19903;-62
2023/10/05 04:44:37;;;;;;;;;;;;;;;11.36;99.33;102235.09;6225635;22;19973;-63
2023/10/05 04:47:04;;;;;;;;;;;;;;;11.36;99.09;102237.72;6222482;22;19985;-63
2023/10/05 04:49:30;;;;;;;;;;;;;;;11.36;98.82;102241.22;6223246;22;19957;-62
2023/10/05 04:51:57;;;;;;;;;;;;;;;11.34;98.83;102240.34;6222897;22;19907;-62
2023/10/05 04:54:25;;;;;;;;;;;;;;;11.31;99.37;102240.31;6247803;22;19907;-63
2023/10/05 04:56:54;;;;;;;;;;;;;;;11.30;99.38;102241.16;6247095;22;19985;-62
2023/10/05 04:59:37;;;;;;;;;;;;;;;11.28;99.34;102237.66;6247917;22;19910;-62
2023/10/05 05:07:54;;;;;;;;;;;;;;;11.19;99.27;102229.72;6173201;22;20051;-63
2023/10/05 05:10:20;;;;;;;;;;;;;;;11.17;99.39;102231.47;6220810;22;19907;-62
2023/10/05 05:12:46;;;;;;;;;;;;;;;11.13;99.28;102229.66;6221391;22;20221;-62
2023/10/05 05:15:13;;;;;;;;;;;;;;;11.09;99.68;102227.03;6222431;22;19915;-62
2023/10/05 05:17:40;;;;;;;;;;;;;;;11.07;99.44;102234.00;6221843;22;19918;-63
2023/10/05 05:20:11;;;;;;;;;;;;;;;11.05;99.60;102242.75;6225099;22;19915;-62
2023/10/05 05:22:37;;;;;;;;;;;;;;;11.04;99.61;102241.84;6225404;22;19907;-62
2023/10/05 05:25:06;;;;;;;;;;;;;;;11.02;99.86;102238.34;6249989;22;19911;-62
2023/10/05 05:27:33;;;;;;;;;;;;;;;11.04;100.00;102240.97;6223381;22;19907;-63
2023/10/05 05:29:58;;;;;;;;;;;;;;;11.03;99.70;102242.72;6248973;22;19903;-62
2023/10/05 05:32:24;;;;;;;;;;;;;;;11.02;99.79;102243.59;6248503;22;19937;-62
2023/10/05 05:34:50;;;;;;;;;;;;;;;11.03;99.57;102245.34;6222650;22;20227;-62
2023/10/05 05:37:25;;;;;;;;;;;;;;;11.03;100.00;102247.97;6247536;22;20088;-62
2023/10/05 05:39:50;;;;;;;;;;;;;;;11.02;100.00;102246.19;6248511;22;20325;-62
2023/10/05 05:42:18;;;;;;;;;;;;;;;11.03;100.00;102247.97;6223936;22;19920;-62
2023/10/05 05:44:43;;;;;;;;;;;;;;;11.05;100.00;102256.72;6224632;22;19934;-62
2023/10/05 05:47:14;;;;;;;;;;;;;;;11.06;100.00;102261.09;6249519;22;19903;-62
2023/10/05 05:49:40;;;;;;;;;;;;;;;11.07;100.00;102259.34;6223770;22;20296;-62
2023/10/05 05:52:05;;;;;;;;;;;;;;;11.08;100.00;102262.00;6223865;22;19914;-62
2023/10/05 05:54:35;;;;;;;;;;;;;;;11.11;100.00;102278.63;6248455;22;19974;-62
2023/10/05 05:57:00;;;;;;;;;;;;;;;11.13;99.88;102271.66;6248905;22;19914;-62
2023/10/05 05:59:26;;;;;;;;;;;;;;;11.16;100.00;102272.56;6249118;22;19903;-62
2023/10/05 06:01:51;;;;;;;;;;;;;;;11.19;100.00;102266.44;6223475;22;19965;-62
2023/10/05 06:04:16;;;;;;;;;;;;;;;11.23;99.87;102269.13;6223607;22;19942;-62
2023/10/05 06:06:43;;;;;;;;;;;;;;;11.25;99.49;102270.00;6223782;22;19915;-62
2023/10/05 06:09:10;;;;;;;;;;;;;;;11.27;100.00;102270.88;6223114;22;20214;-62
2023/10/05 06:11:36;;;;;;;;;;;;;;;11.31;100.00;102278.81;6223345;22;19914;-62
2023/10/05 06:14:02;;;;;;;;;;;;;;;11.33;100.00;102274.44;6224090;22;20245;-62
2023/10/05 06:16:30;;;;;;;;;;;;;;;11.36;99.77;102274.47;6223370;22;19946;-62
2023/10/05 06:18:55;;;;;;;;;;;;;;;11.39;100.00;102277.09;6224346;22;19914;-62
2023/10/05 06:21:21;;;;;;;;;;;;;;;11.42;100.00;102278.03;6222813;22;19912;-62
2023/10/05 06:23:46;;;;;;;;;;;;;;;11.46;100.00;102278.91;6224123;22;19972;-62
2023/10/05 06:26:12;;;;;;;;;;;;;;;11.51;100.00;102281.59;6223449;22;19960;-62
2023/10/05 06:28:37;;;;;;;;;;;;;;;11.53;100.00;102282.47;6223760;22;19990;-62
2023/10/05 06:31:03;;;;;;;;;;;;;;;11.56;100.00;102285.97;6222506;22;20451;-62
2023/10/05 06:33:28;;;;;;;;;;;;;;;11.60;99.44;102289.53;6222961;22;20029;-62
2023/10/05 06:35:55;;;;;;;;;;;;;;;11.62;100.00;102287.78;6223029;22;20321;-62
2023/10/05 06:38:21;;;;;;;;;;;;;;;11.65;99.65;102284.28;6249275;22;20233;-63
2023/10/05 06:40:46;;;;;;;;;;;;;;;11.70;99.74;102295.72;6222667;22;19911;-63
2023/10/05 06:43:12;;;;;;;;;;;;;;;11.73;99.02;102291.34;6223554;22;19915;-62
2023/10/05 06:45:43;;;;;;;;;;;;;;;11.76;99.60;102294.00;6249028;22;19913;-63
2023/10/05 06:48:08;;;;;;;;;;;;;;;11.80;99.19;102302.78;6247807;22;19956;-62
2023/10/05 06:50:33;;;;;;;;;;;;;;;11.81;100.00;102307.19;6223595;22;19993;-63
2023/10/05 06:52:59;;;;;;;;;;;;;;;11.85;100.00;102313.31;6221626;22;19929;-63
2023/10/05 06:55:25;;;;;;;;;;;;;;;11.87;100.00;102319.47;6221483;22;19990;-63
2023/10/05 06:57:50;;;;;;;;;;;;;;;11.89;99.90;102317.72;6223114;22;20245;-63
2023/10/05 07:00:20;;;;;;;;;;;;;;;11.91;99.61;102313.34;6248708;22;19911;-62
2023/10/05 07:02:54;;;;;;;;;;;;;;;11.93;98.96;102322.13;6247059;22;19926;-62
2023/10/05 07:05:22;;;;;;;;;;;;;;;11.93;99.32;102328.28;6247965;22;19918;-62
2023/10/05 07:07:48;;;;;;;;;;;;;;;11.96;99.72;102328.31;6222941;22;19936;-62
2023/10/05 07:10:14;;;;;;;;;;;;;;;11.98;99.46;102328.31;6248152;22;19982;-62
2023/10/05 07:12:41;;;;;;;;;;;;;;;12.01;99.96;102332.72;6217167;22;20392;-62
2023/10/05 07:15:08;;;;;;;;;;;;;;;12.06;99.37;102329.25;6247552;22;19919;-62
2023/10/05 07:17:33;;;;;;;;;;;;;;;12.12;99.87;102334.56;6272671;22;19999;-62
2023/10/05 07:19:58;;;;;;;;;;;;;;;12.17;99.97;102337.22;6248906;22;20251;-63
2023/10/05 07:22:24;;;;;;;;;;;;;;;12.25;99.88;102347.75;6222999;22;19907;-63
2023/10/05 07:24:49;;;;;;;;;;;;;;;12.32;99.88;102349.53;6248665;22;19903;-62
2023/10/05 07:27:15;;;;;;;;;;;;;;;12.42;99.44;102343.44;6220835;22;19908;-62
2023/10/05 07:29:44;;;;;;;;;;;;;;;12.54;98.84;102344.38;6220896;22;19976;-63
2023/10/05 07:32:11;;;;;;;;;;;;;;;12.68;98.76;102352.34;6246122;22;20233;-63
2023/10/05 07:34:36;;;;;;;;;;;;;;;12.85;98.81;102355.88;6247060;22;20344;-63
2023/10/05 07:37:02;;;;;;;;;;;;;;;13.08;97.56;102358.56;6247778;22;19903;-63
2023/10/05 07:39:28;;;;;;;;;;;;;;;13.32;97.45;102356.88;6221512;22;20198;-63
2023/10/05 07:41:53;;;;;;;;;;;;;;;13.63;96.69;102360.44;6222410;22;19907;-63
2023/10/05 07:44:19;;;;;;;;;;;;;;;13.96;94.04;102360.38;6223019;22;19942;-62
2023/10/05 07:46:44;;;;;;;;;;;;;;;14.42;92.92;102362.91;6222269;22;19907;-63
2023/10/05 07:49:09;;;;;;;;;;;;;;;14.76;91.91;102365.44;6246432;22;20372;-63
2023/10/05 07:51:35;;;;;;;;;;;;;;;14.97;92.27;102369.75;6248194;22;20041;-62
2023/10/05 07:54:01;;;;;;;;;;;;;;;15.16;91.34;102365.22;6223192;22;19911;-62
2023/10/05 07:56:26;;;;;;;;;;;;;;;15.45;90.38;102373.81;6222455;22;19915;-62
2023/10/05 07:58:51;;;;;;;;;;;;;;;15.79;90.88;102377.09;6223052;22;19907;-62
2023/10/05 08:01:18;;;;;;;;;;;;;;;16.04;88.57;102374.22;6221701;22;19923;-63
2023/10/05 08:03:43;;;;;;;;;;;;;;;16.24;89.64;102380.16;6246945;22;20037;-63
2023/10/05 08:06:14;;;;;;;;;;;;;;;16.42;89.83;102381.72;6222684;22;20266;-62
2023/10/05 08:08:40;;;;;;;;;;;;;;;16.67;87.86;102392.00;6248068;22;19995;-63
2023/10/05 08:11:06;;;;;;;;;;;;;;;16.96;87.20;102389.00;6246508;22;19911;-63
2023/10/05 08:13:31;;;;;;;;;;;;;;;17.08;84.75;102390.63;6222989;22;19980;-63
2023/10/05 08:15:56;;;;;;;;;;;;;;;17.09;86.11;102394.13;6223203;22;20336;-62
2023/10/05 08:18:22;;;;;;;;;;;;;;;17.06;83.98;102402.13;6221263;22;19914;-63
2023/10/05 08:20:47;;;;;;;;;;;;;;;17.12;85.41;102404.69;6221716;22;19919;-62
2023/10/05 08:23:12;;;;;;;;;;;;;;;17.10;85.62;102401.19;6222454;22;20337;-63
2023/10/05 08:25:39;;;;;;;;;;;;;;;17.26;85.54;102400.06;6222388;22;19953;-62
2023/10/05 08:28:04;;;;;;;;;;;;;;;17.49;84.38;102396.19;6221978;22;19916;-63
2023/10/05 08:30:33;;;;;;;;;;;;;;;17.73;84.04;102407.28;6222842;22;19989;-62
2023/10/05 08:32:58;;;;;;;;;;;;;;;18.08;84.49;102405.84;6221824;22;20237;-63
2023/10/05 08:35:26;;;;;;;;;;;;;;;18.43;83.49;102414.88;6248140;22;19910;-63
2023/10/05 08:37:52;;;;;;;;;;;;;;;18.67;79.87;102409.06;6222408;22;19915;-63
2023/10/05 08:43:16;;;;;;;;;;;;;;;20.14;77.12;102411.00;6250497;22;19913;-64
2023/10/05 08:45:46;;;;;;;;;;;;;;;21.12;74.86;102406.41;6248316;22;19984;-63
2023/10/05 08:48:19;;;;;;;;;;;;;;;21.25;72.85;102412.25;6246160;22;19903;-64
2023/10/05 08:50:49;;;;;;;;;;;;;;;20.86;74.45;102417.84;6248074;22;19961;-64
2023/10/05 08:53:19;;;;;;;;;;;;;;;20.49;74.92;102421.59;6247232;22;19961;-64
2023/10/05 08:55:45;;;;;;;;;;;;;;;20.32;75.71;102422.06;6248035;22;19909;-64
2023/10/05 08:58:18;;;;;;;;;;;;;;;19.96;75.61;102422.13;6221679;22;19907;-63
2023/10/05 09:00:43;;;;;;;;;;;;;;;19.54;76.87;102418.69;6224393;22;19915;-64
2023/10/05 09:03:28;;;;;;;;;;;;;;;19.16;77.61;102416.94;6221021;22;19934;-63
2023/10/05 09:06:12;;;;;;;;;;;;;;;18.76;80.52;102436.34;6226652;22;19915;-64
2023/10/05 09:08:54;;;;;;;;;;;;;;;18.24;80.26;102430.28;6248476;22;19939;-63
2023/10/05 09:11:36;;;;;;;;;;;;;;;17.86;80.94;102432.69;6247298;22;19911;-63
2023/10/05 09:14:08;;;;;;;;;;;;;;;17.65;80.29;102447.19;6246193;22;20186;-63
2023/10/05 09:16:41;;;;;;;;;;;;;;;17.43;82.92;102450.16;6245347;22;19903;-63
2023/10/05 09:19:07;;;;;;;;;;;;;;;17.22;82.50;102453.97;6223442;22;19935;-63
2023/10/05 09:21:50;;;;;;;;;;;;;;;17.04;82.82;102463.06;6247737;22;19907;-63
2023/10/05 09:24:22;;;;;;;;;;;;;;;16.90;83.74;102467.66;6222767;22;19908;-63
2023/10/05 09:26:57;;;;;;;;;;;;;;;16.78;84.31;102473.97;6247281;22;19908;-63
2023/10/05 09:29:28;;;;;;;;;;;;;;;16.69;84.43;102481.97;6222451;22;19907;-63
2023/10/05 09:31:54;;;;;;;;;;;;;;;16.52;83.63;102475.13;6246545;22;19907;-63
2023/10/05 09:34:56;;;;;;;;;;;;;;;16.38;83.61;102471.75;6246791;22;20251;-63
2023/10/05 09:37:23;;;;;;;;;;;;;;;16.37;85.45;102475.28;6273617;22;19952;-63
2023/10/05 09:39:54;;;;;;;;;;;;;;;16.37;84.83;102476.13;6247593;22;19930;-63
2023/10/05 09:42:25;;;;;;;;;;;;;;;16.39;84.44;102473.47;6246857;22;19957;-62
2023/10/05 09:44:51;;;;;;;;;;;;;;;16.37;84.87;102472.63;6247600;22;19911;-62
2023/10/05 09:47:18;;;;;;;;;;;;;;;16.36;84.95;102468.22;6245363;22;19942;-63
2023/10/05 09:49:45;;;;;;;;;;;;;;;16.40;84.11;102456.72;6247477;22;20227;-63
2023/10/05 09:52:11;;;;;;;;;;;;;;;16.37;84.07;102454.09;6247942;22;20236;-63
2023/10/05 09:54:37;;;;;;;;;;;;;;;16.38;83.64;102458.50;6248134;22;19961;-64
2023/10/05 09:57:10;;;;;;;;;;;;;;;16.38;84.13;102450.56;6221105;22;19986;-63
2023/10/05 09:59:38;;;;;;;;;;;;;;;16.34;84.09;102456.78;6222480;22;19953;-63
2023/10/05 10:02:12;;;;;;;;;;;;;;;16.27;84.36;102454.19;6247160;22;20242;-63
2023/10/05 10:04:39;;;;;;;;;;;;;;;16.26;84.54;102457.75;6230073;23;20238;-63
2023/10/05 10:07:26;;;;;;;;;;;;;;;16.24;84.31;102461.28;6238176;23;19918;-63
2023/10/05 10:09:56;;;;;;;;;;;;;;;16.20;84.55;102457.78;6213542;23;19904;-63
2023/10/05 10:12:33;;;;;;;;;;;;;;;16.26;84.53;102463.03;6237791;23;19908;-63
2023/10/05 10:14:59;;;;;;;;;;;;;;;16.26;84.39;102463.03;6239126;23;19903;-63
2023/10/05 10:17:31;;;;;;;;;;;;;;;16.24;84.11;102459.50;6186742;23;19912;-63
2023/10/05 10:20:18;;;;;;;;;;;;;;;16.34;84.39;102459.44;6188793;23;19939;-63
2023/10/05 10:22:50;;;;;;;;;;;;;;;16.46;83.88;102461.94;6238713;23;19915;-63
2023/10/05 10:25:29;;;;;;;;;;;;;;;16.44;83.33;102466.38;6214411;23;20049;-63
2023/10/05 10:28:15;;;;;;;;;;;;;;;16.45;83.24;102466.34;6237836;22;19904;-62
2023/10/05 10:31:11;;;;;;;;;;;;;;;16.50;83.06;102465.44;6213189;23;20324;-63
2023/10/05 10:33:37;;;;;;;;;;;;;;;16.54;83.49;102462.75;6238490;23;19903;-63
2023/10/05 10:36:06;;;;;;;;;;;;;;;16.68;83.78;102459.06;6213601;23;19904;-63
2023/10/05 10:38:32;;;;;;;;;;;;;;;16.88;83.61;102458.84;6213120;23;20326;-63
2023/10/05 10:41:07;;;;;;;;;;;;;;;17.02;82.92;102463.97;6213379;23;19922;-63
2023/10/05 10:43:32;;;;;;;;;;;;;;;17.23;81.60;102471.63;6238877;23;19942;-63
2023/10/05 10:45:59;;;;;;;;;;;;;;;17.32;81.06;102465.34;6238933;23;19992;-63
2023/10/05 10:48:29;;;;;;;;;;;;;;;17.40;81.28;102471.41;6211573;23;20277;-63
2023/10/05 10:50:59;;;;;;;;;;;;;;;17.46;80.01;102459.84;6189182;23;19935;-63
2023/10/05 10:53:25;;;;;;;;;;;;;;;17.66;80.71;102467.50;6213330;23;19904;-63
2023/10/05 10:55:58;;;;;;;;;;;;;;;17.79;79.45;102457.56;6213291;23;19911;-63
2023/10/05 10:58:25;;;;;;;;;;;;;;;18.02;80.55;102448.41;6237630;22;19910;-63
2023/10/05 11:00:59;;;;;;;;;;;;;;;18.26;78.25;102457.66;6238167;23;19995;-63
2023/10/05 11:03:26;;;;;;;;;;;;;;;18.32;77.84;102458.44;6237748;23;19904;-63
2023/10/05 11:05:54;;;;;;;;;;;;;;;18.38;77.44;102453.94;6266807;22;19912;-63
2023/10/05 11:08:20;;;;;;;;;;;;;;;18.56;77.87;102450.94;6218483;23;19943;-63
2023/10/05 11:11:24;;;;;;;;;;;;;;;18.83;77.51;102451.25;6243048;23;19991;-63
2023/10/05 11:13:55;;;;;;;;;;;;;;;19.34;75.52;102448.41;6243675;23;19908;-64
2023/10/05 11:16:20;;;;;;;;;;;;;;;19.41;73.95;102442.94;6229615;22;19926;-63
2023/10/05 11:18:50;;;;;;;;;;;;;;;19.27;75.10;102446.78;6268067;22;19983;-63
2023/10/05 11:21:18;;;;;;;;;;;;;;;19.18;74.52;102447.88;6237692;22;20255;-63
2023/10/05 11:23:44;;;;;;;;;;;;;;;19.06;74.43;102444.63;6218449;23;19955;-63
2023/10/05 11:27:05;;;;;;;;;;;;;;;18.98;74.57;102443.00;6214377;22;19938;-63
2023/10/05 11:29:14;;;;;;;;;;;;;;;18.97;75.61;102441.25;6227585;22;20287;-63
2023/10/05 11:31:41;;;;;;;;;;;;;;;19.00;75.42;102442.97;6219361;22;19922;-63
2023/10/05 11:34:27;;;;;;;;;;;;;;;19.10;76.21;102444.50;6244540;22;19919;-63
2023/10/05 11:36:53;;;;;;;;;;;;;;;19.21;75.81;102439.84;6193965;23;19919;-63
2023/10/05 11:39:21;;;;;;;;;;;;;;;19.28;75.13;102442.34;6188255;23;19969;-64
2023/10/05 11:41:47;;;;;;;;;;;;;;;19.25;74.69;102442.41;6186715;23;19916;-63
2023/10/05 11:44:20;;;;;;;;;;;;;;;19.20;75.63;102443.38;6163200;23;19908;-63
2023/10/05 11:46:46;;;;;;;;;;;;;;;19.07;74.26;102447.25;6197453;22;19949;-63
2023/10/05 11:49:13;;;;;;;;;;;;;;;18.91;75.45;102438.72;6217600;22;19919;-63
2023/10/05 11:51:41;;;;;;;;;;;;;;;18.89;74.97;102440.53;6215236;22;19951;-64
2023/10/05 11:54:07;;;;;;;;;;;;;;;19.00;74.20;102443.84;6215643;22;19923;-63
2023/10/05 11:56:33;;;;;;;;;;;;;;;19.12;75.72;102439.16;6201200;22;19950;-63
2023/10/05 11:59:00;;;;;;;;;;;;;;;19.30;75.27;102451.16;6236245;22;19942;-63
2023/10/05 12:01:26;;;;;;;;;;;;;;;19.41;74.86;102445.59;6234923;22;19990;-63
2023/10/05 12:03:51;;;;;;;;;;;;;;;19.50;74.91;102440.06;6231244;22;19992;-63
2023/10/05 12:06:23;;;;;;;;;;;;;;;19.47;73.83;102440.16;6190261;23;19915;-64
2023/10/05 12:08:49;;;;;;;;;;;;;;;19.29;74.33;102452.06;6217575;23;19977;-63
2023/10/05 12:11:15;;;;;;;;;;;;;;;19.21;73.97;102445.16;6216883;23;20217;-63
2023/10/05 12:13:40;;;;;;;;;;;;;;;19.19;74.63;102435.44;6217178;23;20368;-64
2023/10/05 12:16:11;;;;;;;;;;;;;;;19.09;73.00;102442.75;6217547;23;19907;-63
2023/10/05 12:18:37;;;;;;;;;;;;;;;19.23;74.27;102442.44;6216832;23;19904;-63
2023/10/05 12:21:03;;;;;;;;;;;;;;;19.36;73.81;102443.91;6216670;23;19911;-63
2023/10/05 12:23:28;;;;;;;;;;;;;;;19.48;74.48;102440.13;6217684;23;19912;-63
2023/10/05 12:25:53;;;;;;;;;;;;;;;19.43;74.03;102435.81;6192642;23;19911;-63
2023/10/05 12:28:23;;;;;;;;;;;;;;;19.48;73.29;102439.22;6191874;23;19908;-63
2023/10/05 12:30:48;;;;;;;;;;;;;;;19.32;72.88;102446.69;6193661;23;20253;-63
2023/10/05 12:33:15;;;;;;;;;;;;;;;19.35;73.87;102442.19;6217069;23;19903;-62
2023/10/05 12:35:42;;;;;;;;;;;;;;;19.49;72.35;102436.53;6192325;23;19931;-63
2023/10/05 12:38:08;;;;;;;;;;;;;;;19.56;73.40;102443.44;6192803;23;19936;-63
2023/10/05 12:40:34;;;;;;;;;;;;;;;19.63;72.61;102440.66;6217997;23;19908;-62
2023/10/05 12:43:00;;;;;;;;;;;;;;;19.58;73.58;102439.88;6191861;23;19935;-63
2023/10/05 12:45:26;;;;;;;;;;;;;;;19.42;72.16;102444.69;6192346;23;19963;-63
2023/10/05 12:47:58;;;;;;;;;;;;;;;19.26;73.44;102442.38;6243878;22;19903;-63
2023/10/05 12:50:27;;;;;;;;;;;;;;;19.21;73.44;102444.28;6192995;23;19919;-63
2023/10/05 12:52:53;;;;;;;;;;;;;;;19.18;74.49;102439.91;6217484;23;19908;-62
2023/10/05 12:55:19;;;;;;;;;;;;;;;19.11;73.79;102445.41;6218443;23;19922;-63
2023/10/05 12:57:53;;;;;;;;;;;;;;;19.00;74.06;102445.63;6216072;23;19958;-63
2023/10/05 13:00:20;;;;;;;;;;;;;;;19.13;73.51;102447.09;6243643;23;19912;-62
2023/10/05 13:02:51;;;;;;;;;;;;;;;19.66;73.29;102451.22;6191502;23;19965;-63